sensor_id;sensor_type;location;lat;lon;timestamp;P1;durP1;ratioP1;P2;durP2;ratioP2
73474;SDS011;61711;52.266;10.542;2022-11-14T00:02:23;54.08;;;23.83;;
73474;SDS011;61711;52.266;10.542;2022-11-14T00:04:49;50.22;;;21.17;;
73474;SDS011;61711;52.266;10.542;2022-11-14T00:07:15;59.05;;;23.38;;
73474;SDS011;61711;52.266;10.542;2022-11-14T00:09:41;56.03;;;23.92;;
73474;SDS011;61711;52.266;10.542;2022-11-14T00:12:08;51.65;;;22.88;;
73474;SDS011;61711;52.266;10.542;2022-11-14T00:14:34;48.00;;;22.27;;
73474;SDS011;61711;52.266;10.542;2022-11-14T00:17:00;51.20;;;23.65;;
73474;SDS011;61711;52.266;10.542;2022-11-14T00:19:26;53.85;;;23.25;;
73474;SDS011;61711;52.266;10.542;2022-11-14T00:21:52;55.00;;;23.10;;
73474;SDS011;61711;52.266;10.542;2022-11-14T00:24:19;53.85;;;22.80;;
73474;SDS011;61711;52.266;10.542;2022-11-14T00:26:45;49.88;;;22.33;;
73474;SDS011;61711;52.266;10.542;2022-11-14T00:29:12;56.85;;;23.10;;
73474;SDS011;61711;52.266;10.542;2022-11-14T00:31:38;60.55;;;24.15;;
73474;SDS011;61711;52.266;10.542;2022-11-14T00:34:04;53.70;;;23.35;;
73474;SDS011;61711;52.266;10.542;2022-11-14T00:36:30;52.25;;;22.95;;
73474;SDS011;61711;52.266;10.542;2022-11-14T00:38:56;55.72;;;22.75;;
73474;SDS011;61711;52.266;10.542;2022-11-14T00:41:22;54.88;;;23.52;;
73474;SDS011;61711;52.266;10.542;2022-11-14T00:43:48;49.97;;;22.25;;
73474;SDS011;61711;52.266;10.542;2022-11-14T00:46:14;53.38;;;23.23;;
73474;SDS011;61711;52.266;10.542;2022-11-14T00:48:41;52.35;;;22.80;;
73474;SDS011;61711;52.266;10.542;2022-11-14T00:51:07;50.05;;;22.58;;
73474;SDS011;61711;52.266;10.542;2022-11-14T00:53:33;48.78;;;22.63;;
73474;SDS011;61711;52.266;10.542;2022-11-14T00:55:59;51.88;;;23.25;;
73474;SDS011;61711;52.266;10.542;2022-11-14T00:58:25;50.72;;;22.90;;
73474;SDS011;61711;52.266;10.542;2022-11-14T01:00:51;54.55;;;22.73;;
73474;SDS011;61711;52.266;10.542;2022-11-14T01:03:17;53.03;;;22.67;;
73474;SDS011;61711;52.266;10.542;2022-11-14T01:05:44;51.08;;;22.58;;
73474;SDS011;61711;52.266;10.542;2022-11-14T01:08:10;47.35;;;21.25;;
73474;SDS011;61711;52.266;10.542;2022-11-14T01:10:41;48.90;;;21.90;;
73474;SDS011;61711;52.266;10.542;2022-11-14T01:13:08;48.08;;;22.50;;
73474;SDS011;61711;52.266;10.542;2022-11-14T01:15:41;47.92;;;22.42;;
73474;SDS011;61711;52.266;10.542;2022-11-14T01:18:09;49.38;;;22.38;;
73474;SDS011;61711;52.266;10.542;2022-11-14T01:20:37;47.28;;;21.55;;
73474;SDS011;61711;52.266;10.542;2022-11-14T01:23:04;48.20;;;20.83;;
73474;SDS011;61711;52.266;10.542;2022-11-14T01:25:31;47.40;;;21.70;;
73474;SDS011;61711;52.266;10.542;2022-11-14T01:27:57;52.47;;;22.17;;
73474;SDS011;61711;52.266;10.542;2022-11-14T01:30:23;52.20;;;22.52;;
73474;SDS011;61711;52.266;10.542;2022-11-14T01:32:49;48.38;;;21.65;;
73474;SDS011;61711;52.266;10.542;2022-11-14T01:35:15;50.63;;;22.08;;
73474;SDS011;61711;52.266;10.542;2022-11-14T01:37:41;49.38;;;21.48;;
73474;SDS011;61711;52.266;10.542;2022-11-14T01:40:07;52.38;;;23.05;;
73474;SDS011;61711;52.266;10.542;2022-11-14T01:42:34;56.00;;;23.48;;
73474;SDS011;61711;52.266;10.542;2022-11-14T01:45:00;57.00;;;23.70;;
73474;SDS011;61711;52.266;10.542;2022-11-14T01:47:26;52.78;;;22.10;;
73474;SDS011;61711;52.266;10.542;2022-11-14T01:49:56;53.28;;;21.60;;
73474;SDS011;61711;52.266;10.542;2022-11-14T01:54:52;54.25;;;23.23;;
73474;SDS011;61711;52.266;10.542;2022-11-14T01:57:28;54.03;;;21.80;;
73474;SDS011;61711;52.266;10.542;2022-11-14T01:59:54;50.65;;;21.40;;
73474;SDS011;61711;52.266;10.542;2022-11-14T02:02:24;51.50;;;22.42;;
73474;SDS011;61711;52.266;10.542;2022-11-14T02:04:52;56.70;;;23.50;;
73474;SDS011;61711;52.266;10.542;2022-11-14T02:07:20;54.75;;;22.75;;
73474;SDS011;61711;52.266;10.542;2022-11-14T02:09:48;55.30;;;22.83;;
73474;SDS011;61711;52.266;10.542;2022-11-14T02:12:15;53.10;;;23.52;;
73474;SDS011;61711;52.266;10.542;2022-11-14T02:14:42;54.05;;;23.92;;
73474;SDS011;61711;52.266;10.542;2022-11-14T02:17:12;52.88;;;22.90;;
73474;SDS011;61711;52.266;10.542;2022-11-14T02:19:39;53.13;;;23.95;;
73474;SDS011;61711;52.266;10.542;2022-11-14T02:22:05;60.42;;;24.10;;
73474;SDS011;61711;52.266;10.542;2022-11-14T02:24:31;56.72;;;22.92;;
73474;SDS011;61711;52.266;10.542;2022-11-14T02:26:57;50.25;;;23.38;;
73474;SDS011;61711;52.266;10.542;2022-11-14T02:29:23;56.03;;;23.30;;
73474;SDS011;61711;52.266;10.542;2022-11-14T02:31:49;53.45;;;21.77;;
73474;SDS011;61711;52.266;10.542;2022-11-14T02:34:15;54.55;;;23.15;;
73474;SDS011;61711;52.266;10.542;2022-11-14T02:36:44;56.00;;;23.45;;
73474;SDS011;61711;52.266;10.542;2022-11-14T02:39:10;58.90;;;23.70;;
73474;SDS011;61711;52.266;10.542;2022-11-14T02:41:36;56.20;;;23.15;;
73474;SDS011;61711;52.266;10.542;2022-11-14T02:44:02;54.28;;;22.58;;
73474;SDS011;61711;52.266;10.542;2022-11-14T02:46:28;54.28;;;23.02;;
73474;SDS011;61711;52.266;10.542;2022-11-14T02:48:54;56.40;;;22.80;;
73474;SDS011;61711;52.266;10.542;2022-11-14T02:51:20;56.60;;;23.52;;
73474;SDS011;61711;52.266;10.542;2022-11-14T02:53:46;57.83;;;22.85;;
73474;SDS011;61711;52.266;10.542;2022-11-14T02:56:12;57.13;;;22.15;;
73474;SDS011;61711;52.266;10.542;2022-11-14T02:58:38;54.80;;;22.33;;
73474;SDS011;61711;52.266;10.542;2022-11-14T03:01:04;58.30;;;22.73;;
73474;SDS011;61711;52.266;10.542;2022-11-14T03:03:30;61.65;;;24.33;;
73474;SDS011;61711;52.266;10.542;2022-11-14T03:05:59;56.45;;;23.60;;
73474;SDS011;61711;52.266;10.542;2022-11-14T03:08:26;59.85;;;22.42;;
73474;SDS011;61711;52.266;10.542;2022-11-14T03:10:52;65.88;;;23.20;;
73474;SDS011;61711;52.266;10.542;2022-11-14T03:13:18;60.58;;;23.13;;
73474;SDS011;61711;52.266;10.542;2022-11-14T03:15:44;59.67;;;23.73;;
73474;SDS011;61711;52.266;10.542;2022-11-14T03:18:10;59.17;;;22.50;;
73474;SDS011;61711;52.266;10.542;2022-11-14T03:20:36;57.53;;;22.38;;
73474;SDS011;61711;52.266;10.542;2022-11-14T03:23:02;61.75;;;22.88;;
73474;SDS011;61711;52.266;10.542;2022-11-14T03:25:29;63.40;;;23.45;;
73474;SDS011;61711;52.266;10.542;2022-11-14T03:27:55;59.78;;;24.17;;
73474;SDS011;61711;52.266;10.542;2022-11-14T03:30:21;63.80;;;24.38;;
73474;SDS011;61711;52.266;10.542;2022-11-14T03:32:47;58.90;;;22.85;;
73474;SDS011;61711;52.266;10.542;2022-11-14T03:35:13;59.42;;;23.48;;
73474;SDS011;61711;52.266;10.542;2022-11-14T03:37:39;58.28;;;23.05;;
73474;SDS011;61711;52.266;10.542;2022-11-14T03:40:05;60.92;;;23.17;;
73474;SDS011;61711;52.266;10.542;2022-11-14T03:42:34;55.33;;;22.33;;
73474;SDS011;61711;52.266;10.542;2022-11-14T03:45:00;55.33;;;22.77;;
73474;SDS011;61711;52.266;10.542;2022-11-14T03:47:26;55.42;;;22.35;;
73474;SDS011;61711;52.266;10.542;2022-11-14T03:49:52;51.08;;;21.60;;
73474;SDS011;61711;52.266;10.542;2022-11-14T03:52:18;56.45;;;22.88;;
73474;SDS011;61711;52.266;10.542;2022-11-14T03:54:44;46.97;;;21.08;;
73474;SDS011;61711;52.266;10.542;2022-11-14T03:57:10;53.80;;;21.45;;
73474;SDS011;61711;52.266;10.542;2022-11-14T03:59:36;55.03;;;22.27;;
73474;SDS011;61711;52.266;10.542;2022-11-14T04:02:02;52.85;;;20.42;;
73474;SDS011;61711;52.266;10.542;2022-11-14T04:04:28;54.60;;;22.55;;
73474;SDS011;61711;52.266;10.542;2022-11-14T04:06:54;51.90;;;21.20;;
73474;SDS011;61711;52.266;10.542;2022-11-14T04:09:20;59.63;;;22.75;;
73474;SDS011;61711;52.266;10.542;2022-11-14T04:11:46;57.83;;;22.23;;
73474;SDS011;61711;52.266;10.542;2022-11-14T04:14:12;57.78;;;22.85;;
73474;SDS011;61711;52.266;10.542;2022-11-14T04:16:38;63.30;;;23.13;;
73474;SDS011;61711;52.266;10.542;2022-11-14T04:19:04;57.13;;;21.73;;
73474;SDS011;61711;52.266;10.542;2022-11-14T04:21:30;57.10;;;22.80;;
73474;SDS011;61711;52.266;10.542;2022-11-14T04:23:56;56.83;;;22.80;;
73474;SDS011;61711;52.266;10.542;2022-11-14T04:26:22;57.72;;;22.33;;
73474;SDS011;61711;52.266;10.542;2022-11-14T04:28:48;55.47;;;23.45;;
73474;SDS011;61711;52.266;10.542;2022-11-14T04:31:14;62.05;;;22.70;;
73474;SDS011;61711;52.266;10.542;2022-11-14T04:33:40;61.85;;;23.27;;
73474;SDS011;61711;52.266;10.542;2022-11-14T04:36:06;55.80;;;23.05;;
73474;SDS011;61711;52.266;10.542;2022-11-14T04:38:32;61.50;;;23.83;;
73474;SDS011;61711;52.266;10.542;2022-11-14T04:40:58;58.83;;;23.15;;
73474;SDS011;61711;52.266;10.542;2022-11-14T04:43:24;60.13;;;23.67;;
73474;SDS011;61711;52.266;10.542;2022-11-14T04:45:50;60.60;;;24.58;;
73474;SDS011;61711;52.266;10.542;2022-11-14T04:48:16;58.95;;;23.48;;
73474;SDS011;61711;52.266;10.542;2022-11-14T04:50:43;59.38;;;22.30;;
73474;SDS011;61711;52.266;10.542;2022-11-14T04:53:09;63.10;;;23.40;;
73474;SDS011;61711;52.266;10.542;2022-11-14T04:55:35;60.22;;;23.10;;
73474;SDS011;61711;52.266;10.542;2022-11-14T04:58:01;56.63;;;21.88;;
73474;SDS011;61711;52.266;10.542;2022-11-14T05:00:28;60.22;;;23.10;;
73474;SDS011;61711;52.266;10.542;2022-11-14T05:02:54;58.58;;;23.25;;
73474;SDS011;61711;52.266;10.542;2022-11-14T05:05:19;55.28;;;22.55;;
73474;SDS011;61711;52.266;10.542;2022-11-14T05:07:45;55.63;;;21.75;;
73474;SDS011;61711;52.266;10.542;2022-11-14T05:10:12;52.08;;;22.05;;
73474;SDS011;61711;52.266;10.542;2022-11-14T05:12:38;58.40;;;22.85;;
73474;SDS011;61711;52.266;10.542;2022-11-14T05:15:04;56.42;;;21.67;;
73474;SDS011;61711;52.266;10.542;2022-11-14T05:17:30;58.17;;;21.95;;
73474;SDS011;61711;52.266;10.542;2022-11-14T05:19:56;58.08;;;23.20;;
73474;SDS011;61711;52.266;10.542;2022-11-14T05:22:22;55.95;;;22.70;;
73474;SDS011;61711;52.266;10.542;2022-11-14T05:24:48;55.75;;;20.90;;
73474;SDS011;61711;52.266;10.542;2022-11-14T05:27:14;56.17;;;22.52;;
73474;SDS011;61711;52.266;10.542;2022-11-14T05:29:40;56.10;;;22.85;;
73474;SDS011;61711;52.266;10.542;2022-11-14T05:32:06;58.58;;;23.65;;
73474;SDS011;61711;52.266;10.542;2022-11-14T05:34:32;61.67;;;23.35;;
73474;SDS011;61711;52.266;10.542;2022-11-14T05:36:58;56.15;;;22.70;;
73474;SDS011;61711;52.266;10.542;2022-11-14T05:39:24;58.22;;;22.45;;
73474;SDS011;61711;52.266;10.542;2022-11-14T05:41:50;57.38;;;22.85;;
73474;SDS011;61711;52.266;10.542;2022-11-14T05:44:16;61.65;;;23.13;;
73474;SDS011;61711;52.266;10.542;2022-11-14T05:46:42;63.42;;;24.40;;
73474;SDS011;61711;52.266;10.542;2022-11-14T05:49:08;59.13;;;23.33;;
73474;SDS011;61711;52.266;10.542;2022-11-14T05:51:34;62.72;;;23.83;;
73474;SDS011;61711;52.266;10.542;2022-11-14T05:54:00;59.50;;;23.83;;
73474;SDS011;61711;52.266;10.542;2022-11-14T05:56:26;57.47;;;22.52;;
73474;SDS011;61711;52.266;10.542;2022-11-14T05:58:52;62.22;;;23.13;;
73474;SDS011;61711;52.266;10.542;2022-11-14T06:01:18;64.13;;;23.90;;
73474;SDS011;61711;52.266;10.542;2022-11-14T06:03:45;59.65;;;23.40;;
73474;SDS011;61711;52.266;10.542;2022-11-14T06:06:12;55.88;;;22.25;;
73474;SDS011;61711;52.266;10.542;2022-11-14T06:08:39;62.22;;;23.90;;
73474;SDS011;61711;52.266;10.542;2022-11-14T06:11:06;57.20;;;23.95;;
73474;SDS011;61711;52.266;10.542;2022-11-14T06:13:32;60.78;;;23.20;;
73474;SDS011;61711;52.266;10.542;2022-11-14T06:16:02;56.72;;;22.38;;
73474;SDS011;61711;52.266;10.542;2022-11-14T06:18:29;57.03;;;23.02;;
73474;SDS011;61711;52.266;10.542;2022-11-14T06:21:14;62.95;;;25.17;;
73474;SDS011;61711;52.266;10.542;2022-11-14T06:23:40;61.00;;;22.92;;
73474;SDS011;61711;52.266;10.542;2022-11-14T06:26:09;57.80;;;22.55;;
73474;SDS011;61711;52.266;10.542;2022-11-14T06:28:37;60.95;;;23.15;;
73474;SDS011;61711;52.266;10.542;2022-11-14T06:31:03;61.50;;;23.77;;
73474;SDS011;61711;52.266;10.542;2022-11-14T06:33:32;50.65;;;21.85;;
73474;SDS011;61711;52.266;10.542;2022-11-14T06:35:59;56.08;;;22.17;;
73474;SDS011;61711;52.266;10.542;2022-11-14T06:38:25;61.10;;;22.50;;
73474;SDS011;61711;52.266;10.542;2022-11-14T06:40:51;52.95;;;22.90;;
73474;SDS011;61711;52.266;10.542;2022-11-14T06:43:17;58.08;;;23.02;;
73474;SDS011;61711;52.266;10.542;2022-11-14T06:45:44;55.25;;;22.05;;
73474;SDS011;61711;52.266;10.542;2022-11-14T06:48:10;56.50;;;22.33;;
73474;SDS011;61711;52.266;10.542;2022-11-14T06:50:36;49.92;;;20.88;;
73474;SDS011;61711;52.266;10.542;2022-11-14T06:53:02;54.25;;;22.15;;
73474;SDS011;61711;52.266;10.542;2022-11-14T06:55:28;54.03;;;21.25;;
73474;SDS011;61711;52.266;10.542;2022-11-14T06:57:53;53.92;;;22.00;;
73474;SDS011;61711;52.266;10.542;2022-11-14T07:00:20;61.63;;;22.50;;
73474;SDS011;61711;52.266;10.542;2022-11-14T07:02:46;58.08;;;22.30;;
73474;SDS011;61711;52.266;10.542;2022-11-14T07:05:13;52.58;;;22.23;;
73474;SDS011;61711;52.266;10.542;2022-11-14T07:07:39;52.13;;;22.48;;
73474;SDS011;61711;52.266;10.542;2022-11-14T07:10:05;53.97;;;21.77;;
73474;SDS011;61711;52.266;10.542;2022-11-14T07:12:31;54.58;;;21.65;;
73474;SDS011;61711;52.266;10.542;2022-11-14T07:14:57;57.50;;;23.33;;
73474;SDS011;61711;52.266;10.542;2022-11-14T07:17:23;56.08;;;21.67;;
73474;SDS011;61711;52.266;10.542;2022-11-14T07:19:49;51.40;;;21.75;;
73474;SDS011;61711;52.266;10.542;2022-11-14T07:22:15;56.60;;;21.65;;
73474;SDS011;61711;52.266;10.542;2022-11-14T07:24:41;55.15;;;21.92;;
73474;SDS011;61711;52.266;10.542;2022-11-14T07:27:07;53.72;;;21.92;;
73474;SDS011;61711;52.266;10.542;2022-11-14T07:29:36;53.55;;;21.73;;
73474;SDS011;61711;52.266;10.542;2022-11-14T07:32:03;53.25;;;22.52;;
73474;SDS011;61711;52.266;10.542;2022-11-14T07:34:29;53.58;;;22.08;;
73474;SDS011;61711;52.266;10.542;2022-11-14T07:36:55;47.75;;;20.52;;
73474;SDS011;61711;52.266;10.542;2022-11-14T07:39:21;52.83;;;21.23;;
73474;SDS011;61711;52.266;10.542;2022-11-14T07:41:47;52.67;;;21.27;;
73474;SDS011;61711;52.266;10.542;2022-11-14T07:44:13;57.00;;;21.45;;
73474;SDS011;61711;52.266;10.542;2022-11-14T07:46:39;52.50;;;21.38;;
73474;SDS011;61711;52.266;10.542;2022-11-14T07:49:05;56.42;;;22.05;;
73474;SDS011;61711;52.266;10.542;2022-11-14T07:51:31;48.70;;;21.00;;
73474;SDS011;61711;52.266;10.542;2022-11-14T07:53:57;52.22;;;21.00;;
73474;SDS011;61711;52.266;10.542;2022-11-14T07:56:23;48.65;;;20.27;;
73474;SDS011;61711;52.266;10.542;2022-11-14T07:58:50;50.90;;;20.00;;
73474;SDS011;61711;52.266;10.542;2022-11-14T08:01:16;51.30;;;20.20;;
73474;SDS011;61711;52.266;10.542;2022-11-14T08:03:42;52.58;;;22.02;;
73474;SDS011;61711;52.266;10.542;2022-11-14T08:06:10;51.30;;;22.20;;
73474;SDS011;61711;52.266;10.542;2022-11-14T08:08:36;53.33;;;21.58;;
73474;SDS011;61711;52.266;10.542;2022-11-14T08:11:02;48.75;;;21.42;;
73474;SDS011;61711;52.266;10.542;2022-11-14T08:13:28;53.80;;;21.83;;
73474;SDS011;61711;52.266;10.542;2022-11-14T08:15:54;53.35;;;21.40;;
73474;SDS011;61711;52.266;10.542;2022-11-14T08:18:21;51.83;;;21.08;;
73474;SDS011;61711;52.266;10.542;2022-11-14T08:20:47;52.58;;;22.50;;
73474;SDS011;61711;52.266;10.542;2022-11-14T08:23:13;58.53;;;23.10;;
73474;SDS011;61711;52.266;10.542;2022-11-14T08:25:39;51.38;;;21.88;;
73474;SDS011;61711;52.266;10.542;2022-11-14T08:28:05;54.58;;;21.75;;
73474;SDS011;61711;52.266;10.542;2022-11-14T08:30:31;51.80;;;21.55;;
73474;SDS011;61711;52.266;10.542;2022-11-14T08:33:01;55.47;;;22.95;;
73474;SDS011;61711;52.266;10.542;2022-11-14T08:35:27;59.20;;;23.35;;
73474;SDS011;61711;52.266;10.542;2022-11-14T08:37:53;60.47;;;24.70;;
73474;SDS011;61711;52.266;10.542;2022-11-14T08:40:19;56.03;;;23.67;;
73474;SDS011;61711;52.266;10.542;2022-11-14T08:42:45;61.85;;;23.80;;
73474;SDS011;61711;52.266;10.542;2022-11-14T08:45:11;64.40;;;24.70;;
73474;SDS011;61711;52.266;10.542;2022-11-14T08:47:37;60.60;;;24.27;;
73474;SDS011;61711;52.266;10.542;2022-11-14T08:50:03;60.22;;;23.95;;
73474;SDS011;61711;52.266;10.542;2022-11-14T08:52:30;59.13;;;24.80;;
73474;SDS011;61711;52.266;10.542;2022-11-14T08:54:56;57.08;;;24.17;;
73474;SDS011;61711;52.266;10.542;2022-11-14T08:57:22;57.20;;;24.58;;
73474;SDS011;61711;52.266;10.542;2022-11-14T08:59:48;59.80;;;24.55;;
73474;SDS011;61711;52.266;10.542;2022-11-14T09:02:14;56.60;;;24.63;;
73474;SDS011;61711;52.266;10.542;2022-11-14T09:04:40;58.38;;;24.20;;
73474;SDS011;61711;52.266;10.542;2022-11-14T09:07:06;53.15;;;23.05;;
73474;SDS011;61711;52.266;10.542;2022-11-14T09:09:32;55.65;;;23.40;;
73474;SDS011;61711;52.266;10.542;2022-11-14T09:11:58;56.47;;;24.35;;
73474;SDS011;61711;52.266;10.542;2022-11-14T09:14:24;53.40;;;24.45;;
73474;SDS011;61711;52.266;10.542;2022-11-14T09:16:50;58.53;;;24.95;;
73474;SDS011;61711;52.266;10.542;2022-11-14T09:19:16;60.85;;;24.75;;
73474;SDS011;61711;52.266;10.542;2022-11-14T09:21:42;56.97;;;24.52;;
73474;SDS011;61711;52.266;10.542;2022-11-14T09:24:08;60.17;;;24.75;;
73474;SDS011;61711;52.266;10.542;2022-11-14T09:26:34;53.00;;;22.98;;
73474;SDS011;61711;52.266;10.542;2022-11-14T09:29:00;54.85;;;23.60;;
73474;SDS011;61711;52.266;10.542;2022-11-14T09:31:26;57.28;;;24.45;;
73474;SDS011;61711;52.266;10.542;2022-11-14T09:33:53;56.50;;;23.35;;
73474;SDS011;61711;52.266;10.542;2022-11-14T09:36:19;50.65;;;22.13;;
73474;SDS011;61711;52.266;10.542;2022-11-14T09:38:45;49.83;;;21.65;;
73474;SDS011;61711;52.266;10.542;2022-11-14T09:47:12;45.78;;;21.27;;
73474;SDS011;61711;52.266;10.542;2022-11-14T09:51:46;43.95;;;20.40;;
73474;SDS011;61711;52.266;10.542;2022-11-14T09:56:43;43.97;;;21.10;;
73474;SDS011;61711;52.266;10.542;2022-11-14T09:59:09;44.53;;;20.00;;
73474;SDS011;61711;52.266;10.542;2022-11-14T10:01:50;42.88;;;20.48;;
73474;SDS011;61711;52.266;10.542;2022-11-14T10:04:24;41.25;;;19.88;;
73474;SDS011;61711;52.266;10.542;2022-11-14T10:12:21;41.85;;;19.52;;
73474;SDS011;61711;52.266;10.542;2022-11-14T10:22:40;39.63;;;19.33;;
73474;SDS011;61711;52.266;10.542;2022-11-14T10:27:47;39.38;;;20.08;;
73474;SDS011;61711;52.266;10.542;2022-11-14T10:30:15;37.72;;;20.20;;
73474;SDS011;61711;52.266;10.542;2022-11-14T10:40:16;41.20;;;20.45;;
73474;SDS011;61711;52.266;10.542;2022-11-14T10:42:44;41.92;;;20.55;;
73474;SDS011;61711;52.266;10.542;2022-11-14T10:45:22;41.33;;;20.65;;
73474;SDS011;61711;52.266;10.542;2022-11-14T10:48:24;44.65;;;22.17;;
73474;SDS011;61711;52.266;10.542;2022-11-14T10:50:46;44.05;;;20.75;;
73474;SDS011;61711;52.266;10.542;2022-11-14T10:53:28;41.50;;;20.77;;
73474;SDS011;61711;52.266;10.542;2022-11-14T10:55:58;39.97;;;19.40;;
73474;SDS011;61711;52.266;10.542;2022-11-14T10:58:24;40.85;;;20.70;;
73474;SDS011;61711;52.266;10.542;2022-11-14T11:00:50;38.42;;;19.63;;
73474;SDS011;61711;52.266;10.542;2022-11-14T11:03:16;38.88;;;19.90;;
73474;SDS011;61711;52.266;10.542;2022-11-14T11:05:50;41.22;;;21.35;;
73474;SDS011;61711;52.266;10.542;2022-11-14T11:08:22;40.25;;;20.27;;
73474;SDS011;61711;52.266;10.542;2022-11-14T11:11:13;38.42;;;18.98;;
73474;SDS011;61711;52.266;10.542;2022-11-14T11:13:55;40.30;;;20.58;;
73474;SDS011;61711;52.266;10.542;2022-11-14T11:16:22;37.03;;;19.42;;
73474;SDS011;61711;52.266;10.542;2022-11-14T11:18:48;37.55;;;20.55;;
73474;SDS011;61711;52.266;10.542;2022-11-14T11:21:17;37.05;;;20.00;;
73474;SDS011;61711;52.266;10.542;2022-11-14T11:23:54;38.25;;;20.13;;
73474;SDS011;61711;52.266;10.542;2022-11-14T11:34:21;37.28;;;19.60;;
73474;SDS011;61711;52.266;10.542;2022-11-14T11:36:49;35.13;;;19.05;;
73474;SDS011;61711;52.266;10.542;2022-11-14T11:39:25;36.80;;;19.73;;
73474;SDS011;61711;52.266;10.542;2022-11-14T11:41:53;39.70;;;19.98;;
73474;SDS011;61711;52.266;10.542;2022-11-14T11:44:20;35.17;;;19.30;;
73474;SDS011;61711;52.266;10.542;2022-11-14T11:49:55;33.83;;;19.45;;
73474;SDS011;61711;52.266;10.542;2022-11-14T11:52:04;36.05;;;19.15;;
73474;SDS011;61711;52.266;10.542;2022-11-14T11:54:35;32.40;;;19.08;;
73474;SDS011;61711;52.266;10.542;2022-11-14T11:57:09;33.80;;;19.20;;
73474;SDS011;61711;52.266;10.542;2022-11-14T11:59:39;34.25;;;19.83;;
73474;SDS011;61711;52.266;10.542;2022-11-14T12:02:22;36.88;;;21.13;;
73474;SDS011;61711;52.266;10.542;2022-11-14T12:04:49;31.35;;;19.25;;
73474;SDS011;61711;52.266;10.542;2022-11-14T12:07:17;34.08;;;19.75;;
73474;SDS011;61711;52.266;10.542;2022-11-14T12:09:43;33.65;;;20.33;;
73474;SDS011;61711;52.266;10.542;2022-11-14T12:32:14;31.00;;;19.70;;
73474;SDS011;61711;52.266;10.542;2022-11-14T12:34:43;31.73;;;20.35;;
73474;SDS011;61711;52.266;10.542;2022-11-14T12:37:14;29.23;;;19.02;;
73474;SDS011;61711;52.266;10.542;2022-11-14T12:39:41;29.55;;;19.63;;
73474;SDS011;61711;52.266;10.542;2022-11-14T12:42:09;31.85;;;20.30;;
73474;SDS011;61711;52.266;10.542;2022-11-14T12:44:38;31.00;;;19.90;;
73474;SDS011;61711;52.266;10.542;2022-11-14T12:52:03;31.70;;;19.20;;
73474;SDS011;61711;52.266;10.542;2022-11-14T12:54:42;29.30;;;17.85;;
73474;SDS011;61711;52.266;10.542;2022-11-14T12:57:10;28.85;;;17.38;;
73474;SDS011;61711;52.266;10.542;2022-11-14T13:00:00;29.15;;;18.10;;
73474;SDS011;61711;52.266;10.542;2022-11-14T13:02:47;26.75;;;17.30;;
73474;SDS011;61711;52.266;10.542;2022-11-14T13:05:37;26.95;;;17.08;;
73474;SDS011;61711;52.266;10.542;2022-11-14T13:10:37;29.27;;;17.92;;
73474;SDS011;61711;52.266;10.542;2022-11-14T13:15:51;33.92;;;17.50;;
73474;SDS011;61711;52.266;10.542;2022-11-14T13:19:00;28.05;;;17.30;;
73474;SDS011;61711;52.266;10.542;2022-11-14T13:24:28;31.33;;;17.23;;
73474;SDS011;61711;52.266;10.542;2022-11-14T13:30:08;29.52;;;17.00;;
73474;SDS011;61711;52.266;10.542;2022-11-14T13:42:54;27.77;;;15.98;;
73474;SDS011;61711;52.266;10.542;2022-11-14T13:45:31;28.08;;;16.10;;
73474;SDS011;61711;52.266;10.542;2022-11-14T13:50:48;32.15;;;17.25;;
73474;SDS011;61711;52.266;10.542;2022-11-14T13:53:19;29.88;;;16.38;;
73474;SDS011;61711;52.266;10.542;2022-11-14T14:04:10;27.00;;;16.00;;
73474;SDS011;61711;52.266;10.542;2022-11-14T14:17:10;25.58;;;14.48;;
73474;SDS011;61711;52.266;10.542;2022-11-14T14:24:58;26.10;;;15.13;;
73474;SDS011;61711;52.266;10.542;2022-11-14T14:27:36;26.73;;;15.25;;
73474;SDS011;61711;52.266;10.542;2022-11-14T14:32:33;29.17;;;14.82;;
73474;SDS011;61711;52.266;10.542;2022-11-14T14:35:00;26.02;;;14.93;;
73474;SDS011;61711;52.266;10.542;2022-11-14T14:37:48;26.63;;;14.77;;
73474;SDS011;61711;52.266;10.542;2022-11-14T14:40:24;25.45;;;14.82;;
73474;SDS011;61711;52.266;10.542;2022-11-14T14:42:51;29.33;;;15.27;;
73474;SDS011;61711;52.266;10.542;2022-11-14T14:45:19;28.65;;;16.38;;
73474;SDS011;61711;52.266;10.542;2022-11-14T14:47:46;27.02;;;15.40;;
73474;SDS011;61711;52.266;10.542;2022-11-14T14:50:58;27.88;;;16.35;;
73474;SDS011;61711;52.266;10.542;2022-11-14T14:52:59;28.92;;;15.95;;
73474;SDS011;61711;52.266;10.542;2022-11-14T14:55:30;27.50;;;15.50;;
73474;SDS011;61711;52.266;10.542;2022-11-14T14:58:42;32.80;;;17.50;;
73474;SDS011;61711;52.266;10.542;2022-11-14T15:01:17;33.20;;;18.13;;
73474;SDS011;61711;52.266;10.542;2022-11-14T15:03:36;32.53;;;16.95;;
73474;SDS011;61711;52.266;10.542;2022-11-14T15:06:04;30.00;;;17.65;;
73474;SDS011;61711;52.266;10.542;2022-11-14T15:08:34;28.55;;;16.50;;
73474;SDS011;61711;52.266;10.542;2022-11-14T15:11:01;29.30;;;16.38;;
73474;SDS011;61711;52.266;10.542;2022-11-14T15:13:28;27.63;;;16.10;;
73474;SDS011;61711;52.266;10.542;2022-11-14T15:15:55;28.25;;;16.63;;
73474;SDS011;61711;52.266;10.542;2022-11-14T15:18:24;31.50;;;17.75;;
73474;SDS011;61711;52.266;10.542;2022-11-14T15:23:36;28.60;;;15.85;;
73474;SDS011;61711;52.266;10.542;2022-11-14T15:26:03;29.05;;;15.75;;
73474;SDS011;61711;52.266;10.542;2022-11-14T15:28:30;33.33;;;16.65;;
73474;SDS011;61711;52.266;10.542;2022-11-14T15:31:00;28.80;;;16.35;;
73474;SDS011;61711;52.266;10.542;2022-11-14T15:33:27;29.60;;;16.60;;
73474;SDS011;61711;52.266;10.542;2022-11-14T15:36:07;34.22;;;18.10;;
73474;SDS011;61711;52.266;10.542;2022-11-14T15:38:34;29.65;;;16.10;;
73474;SDS011;61711;52.266;10.542;2022-11-14T15:41:19;30.15;;;16.42;;
73474;SDS011;61711;52.266;10.542;2022-11-14T15:43:46;29.38;;;15.73;;
73474;SDS011;61711;52.266;10.542;2022-11-14T15:49:14;32.42;;;17.65;;
73474;SDS011;61711;52.266;10.542;2022-11-14T15:52:00;30.45;;;15.75;;
73474;SDS011;61711;52.266;10.542;2022-11-14T15:54:28;30.75;;;16.15;;
73474;SDS011;61711;52.266;10.542;2022-11-14T15:56:56;24.90;;;14.90;;
73474;SDS011;61711;52.266;10.542;2022-11-14T15:59:22;27.25;;;14.68;;
73474;SDS011;61711;52.266;10.542;2022-11-14T16:01:49;23.90;;;14.70;;
73474;SDS011;61711;52.266;10.542;2022-11-14T16:04:17;29.27;;;15.75;;
73474;SDS011;61711;52.266;10.542;2022-11-14T16:06:43;28.38;;;14.93;;
73474;SDS011;61711;52.266;10.542;2022-11-14T16:09:13;27.73;;;15.68;;
73474;SDS011;61711;52.266;10.542;2022-11-14T16:11:39;27.75;;;15.32;;
73474;SDS011;61711;52.266;10.542;2022-11-14T16:14:05;26.38;;;14.40;;
73474;SDS011;61711;52.266;10.542;2022-11-14T16:16:32;24.98;;;14.90;;
73474;SDS011;61711;52.266;10.542;2022-11-14T16:18:58;25.35;;;14.45;;
73474;SDS011;61711;52.266;10.542;2022-11-14T16:21:24;29.98;;;16.17;;
73474;SDS011;61711;52.266;10.542;2022-11-14T16:23:50;47.80;;;28.92;;